sensor_id;sensor_type;location;lat;lon;timestamp;P1;durP1;ratioP1;P2;durP2;ratioP2
38972;SDS011;25333;50.762;4.470;2023-01-29T00:02:15;24.83;;;16.13;;
38972;SDS011;25333;50.762;4.470;2023-01-29T00:04:41;27.77;;;16.90;;
38972;SDS011;25333;50.762;4.470;2023-01-29T00:07:07;24.95;;;17.00;;
38972;SDS011;25333;50.762;4.470;2023-01-29T00:09:32;23.67;;;15.13;;
38972;SDS011;25333;50.762;4.470;2023-01-29T00:11:58;27.00;;;18.07;;
38972;SDS011;25333;50.762;4.470;2023-01-29T00:14:24;25.33;;;16.37;;
38972;SDS011;25333;50.762;4.470;2023-01-29T00:16:51;26.60;;;17.73;;
38972;SDS011;25333;50.762;4.470;2023-01-29T00:19:17;21.45;;;15.38;;
38972;SDS011;25333;50.762;4.470;2023-01-29T00:21:43;24.92;;;16.20;;
38972;SDS011;25333;50.762;4.470;2023-01-29T00:24:09;22.95;;;16.30;;
38972;SDS011;25333;50.762;4.470;2023-01-29T00:26:35;21.70;;;15.77;;
38972;SDS011;25333;50.762;4.470;2023-01-29T00:29:02;23.27;;;15.80;;
38972;SDS011;25333;50.762;4.470;2023-01-29T00:31:29;24.73;;;17.60;;
38972;SDS011;25333;50.762;4.470;2023-01-29T00:33:54;26.05;;;16.23;;
38972;SDS011;25333;50.762;4.470;2023-01-29T00:36:21;28.55;;;17.15;;
38972;SDS011;25333;50.762;4.470;2023-01-29T00:38:52;23.20;;;15.90;;
38972;SDS011;25333;50.762;4.470;2023-01-29T00:41:26;22.73;;;15.38;;
38972;SDS011;25333;50.762;4.470;2023-01-29T00:44:12;23.52;;;15.52;;
38972;SDS011;25333;50.762;4.470;2023-01-29T00:46:56;24.47;;;15.93;;
38972;SDS011;25333;50.762;4.470;2023-01-29T00:49:22;24.90;;;16.88;;
38972;SDS011;25333;50.762;4.470;2023-01-29T00:51:48;25.40;;;16.40;;
38972;SDS011;25333;50.762;4.470;2023-01-29T00:54:34;23.88;;;15.50;;
38972;SDS011;25333;50.762;4.470;2023-01-29T00:57:00;24.58;;;15.90;;
38972;SDS011;25333;50.762;4.470;2023-01-29T00:59:26;22.52;;;15.50;;
38972;SDS011;25333;50.762;4.470;2023-01-29T01:01:51;25.95;;;16.35;;
38972;SDS011;25333;50.762;4.470;2023-01-29T01:04:35;23.05;;;16.92;;
38972;SDS011;25333;50.762;4.470;2023-01-29T01:07:01;21.98;;;15.90;;
38972;SDS011;25333;50.762;4.470;2023-01-29T01:09:27;26.45;;;16.80;;
38972;SDS011;25333;50.762;4.470;2023-01-29T01:12:11;23.40;;;15.70;;
38972;SDS011;25333;50.762;4.470;2023-01-29T01:14:36;21.13;;;14.20;;
38972;SDS011;25333;50.762;4.470;2023-01-29T01:17:02;22.90;;;14.57;;
38972;SDS011;25333;50.762;4.470;2023-01-29T01:19:28;21.87;;;15.07;;
38972;SDS011;25333;50.762;4.470;2023-01-29T01:21:53;20.95;;;14.82;;
38972;SDS011;25333;50.762;4.470;2023-01-29T01:24:19;21.60;;;15.00;;
38972;SDS011;25333;50.762;4.470;2023-01-29T01:26:45;22.00;;;15.07;;
38972;SDS011;25333;50.762;4.470;2023-01-29T01:29:10;25.90;;;15.43;;
38972;SDS011;25333;50.762;4.470;2023-01-29T01:31:36;22.92;;;15.13;;
38972;SDS011;25333;50.762;4.470;2023-01-29T01:34:02;19.87;;;12.73;;
38972;SDS011;25333;50.762;4.470;2023-01-29T01:36:28;19.70;;;13.87;;
38972;SDS011;25333;50.762;4.470;2023-01-29T01:38:55;22.60;;;14.70;;
38972;SDS011;25333;50.762;4.470;2023-01-29T01:41:21;17.90;;;13.73;;
38972;SDS011;25333;50.762;4.470;2023-01-29T01:43:49;23.10;;;15.02;;
38972;SDS011;25333;50.762;4.470;2023-01-29T01:46:16;21.40;;;14.25;;
38972;SDS011;25333;50.762;4.470;2023-01-29T01:48:43;20.20;;;13.55;;
38972;SDS011;25333;50.762;4.470;2023-01-29T01:51:12;21.25;;;13.73;;
38972;SDS011;25333;50.762;4.470;2023-01-29T01:53:39;22.30;;;14.93;;
38972;SDS011;25333;50.762;4.470;2023-01-29T01:56:17;22.63;;;14.45;;
38972;SDS011;25333;50.762;4.470;2023-01-29T01:58:56;20.23;;;14.85;;
38972;SDS011;25333;50.762;4.470;2023-01-29T02:01:23;25.50;;;14.98;;
38972;SDS011;25333;50.762;4.470;2023-01-29T02:04:00;19.70;;;13.82;;
38972;SDS011;25333;50.762;4.470;2023-01-29T02:06:48;20.92;;;13.35;;
38972;SDS011;25333;50.762;4.470;2023-01-29T02:09:35;22.85;;;14.70;;
38972;SDS011;25333;50.762;4.470;2023-01-29T02:12:12;23.20;;;15.07;;
38972;SDS011;25333;50.762;4.470;2023-01-29T02:14:40;20.27;;;13.87;;
38972;SDS011;25333;50.762;4.470;2023-01-29T02:17:09;22.30;;;15.27;;
38972;SDS011;25333;50.762;4.470;2023-01-29T02:19:49;24.42;;;15.48;;
38972;SDS011;25333;50.762;4.470;2023-01-29T02:25:21;18.98;;;13.73;;
38972;SDS011;25333;50.762;4.470;2023-01-29T02:39:12;19.88;;;12.80;;
38972;SDS011;25333;50.762;4.470;2023-01-29T02:41:48;19.80;;;13.77;;
38972;SDS011;25333;50.762;4.470;2023-01-29T02:47:10;25.20;;;14.68;;
38972;SDS011;25333;50.762;4.470;2023-01-29T02:49:51;20.38;;;14.75;;
38972;SDS011;25333;50.762;4.470;2023-01-29T02:52:25;21.05;;;13.80;;
38972;SDS011;25333;50.762;4.470;2023-01-29T02:55:06;21.10;;;14.02;;
38972;SDS011;25333;50.762;4.470;2023-01-29T02:57:38;19.73;;;13.52;;
38972;SDS011;25333;50.762;4.470;2023-01-29T03:00:18;20.67;;;13.93;;
38972;SDS011;25333;50.762;4.470;2023-01-29T03:03:00;21.23;;;14.30;;
38972;SDS011;25333;50.762;4.470;2023-01-29T03:05:36;19.50;;;13.35;;
38972;SDS011;25333;50.762;4.470;2023-01-29T03:08:07;23.48;;;15.05;;
38972;SDS011;25333;50.762;4.470;2023-01-29T03:10:36;24.15;;;15.15;;
38972;SDS011;25333;50.762;4.470;2023-01-29T03:16:02;20.38;;;13.77;;
38972;SDS011;25333;50.762;4.470;2023-01-29T03:18:34;22.77;;;15.05;;
38972;SDS011;25333;50.762;4.470;2023-01-29T03:21:08;19.67;;;14.02;;
38972;SDS011;25333;50.762;4.470;2023-01-29T03:23:57;22.80;;;14.25;;
38972;SDS011;25333;50.762;4.470;2023-01-29T03:26:43;23.00;;;15.98;;
38972;SDS011;25333;50.762;4.470;2023-01-29T03:29:30;21.48;;;15.07;;
38972;SDS011;25333;50.762;4.470;2023-01-29T03:32:16;24.15;;;15.57;;
38972;SDS011;25333;50.762;4.470;2023-01-29T03:34:49;22.13;;;15.57;;
38972;SDS011;25333;50.762;4.470;2023-01-29T03:37:22;22.40;;;14.93;;
38972;SDS011;25333;50.762;4.470;2023-01-29T03:39:53;27.30;;;15.48;;
38972;SDS011;25333;50.762;4.470;2023-01-29T03:42:34;24.17;;;15.40;;
38972;SDS011;25333;50.762;4.470;2023-01-29T03:51:10;22.92;;;14.77;;
38972;SDS011;25333;50.762;4.470;2023-01-29T04:02:04;22.98;;;14.32;;
38972;SDS011;25333;50.762;4.470;2023-01-29T04:04:35;21.90;;;14.23;;
38972;SDS011;25333;50.762;4.470;2023-01-29T04:07:12;23.67;;;16.05;;
38972;SDS011;25333;50.762;4.470;2023-01-29T04:12:44;22.33;;;14.90;;
38972;SDS011;25333;50.762;4.470;2023-01-29T04:15:18;21.45;;;14.65;;
38972;SDS011;25333;50.762;4.470;2023-01-29T04:17:48;22.13;;;14.73;;
38972;SDS011;25333;50.762;4.470;2023-01-29T04:20:16;21.77;;;14.57;;
38972;SDS011;25333;50.762;4.470;2023-01-29T04:22:47;22.75;;;14.80;;
38972;SDS011;25333;50.762;4.470;2023-01-29T04:25:16;23.73;;;14.43;;
38972;SDS011;25333;50.762;4.470;2023-01-29T04:41:41;23.08;;;15.57;;
38972;SDS011;25333;50.762;4.470;2023-01-29T04:44:22;21.27;;;15.35;;
38972;SDS011;25333;50.762;4.470;2023-01-29T04:49:52;20.20;;;13.80;;
38972;SDS011;25333;50.762;4.470;2023-01-29T04:57:59;22.90;;;15.10;;
38972;SDS011;25333;50.762;4.470;2023-01-29T05:00:39;21.10;;;14.40;;
38972;SDS011;25333;50.762;4.470;2023-01-29T05:03:15;22.77;;;14.02;;
38972;SDS011;25333;50.762;4.470;2023-01-29T05:05:44;26.27;;;15.27;;
38972;SDS011;25333;50.762;4.470;2023-01-29T05:08:12;22.67;;;15.40;;
38972;SDS011;25333;50.762;4.470;2023-01-29T05:10:42;23.67;;;15.85;;
38972;SDS011;25333;50.762;4.470;2023-01-29T05:13:09;24.95;;;16.70;;
38972;SDS011;25333;50.762;4.470;2023-01-29T05:15:43;29.00;;;17.48;;
38972;SDS011;25333;50.762;4.470;2023-01-29T05:18:29;24.52;;;17.35;;
38972;SDS011;25333;50.762;4.470;2023-01-29T05:20:56;28.25;;;16.48;;
38972;SDS011;25333;50.762;4.470;2023-01-29T05:23:25;28.38;;;16.27;;
38972;SDS011;25333;50.762;4.470;2023-01-29T05:25:51;26.58;;;16.35;;
38972;SDS011;25333;50.762;4.470;2023-01-29T05:28:17;22.95;;;15.50;;
38972;SDS011;25333;50.762;4.470;2023-01-29T05:30:47;25.08;;;16.40;;
38972;SDS011;25333;50.762;4.470;2023-01-29T05:33:20;24.65;;;16.60;;
38972;SDS011;25333;50.762;4.470;2023-01-29T05:35:46;22.77;;;15.95;;
38972;SDS011;25333;50.762;4.470;2023-01-29T05:38:12;23.17;;;14.63;;
38972;SDS011;25333;50.762;4.470;2023-01-29T05:40:39;24.77;;;16.90;;
38972;SDS011;25333;50.762;4.470;2023-01-29T05:43:05;22.20;;;15.30;;
38972;SDS011;25333;50.762;4.470;2023-01-29T05:45:38;22.35;;;15.00;;
38972;SDS011;25333;50.762;4.470;2023-01-29T05:48:03;24.30;;;16.23;;
38972;SDS011;25333;50.762;4.470;2023-01-29T05:50:30;25.27;;;16.27;;
38972;SDS011;25333;50.762;4.470;2023-01-29T05:52:56;26.00;;;16.20;;
38972;SDS011;25333;50.762;4.470;2023-01-29T05:55:23;25.90;;;16.63;;
38972;SDS011;25333;50.762;4.470;2023-01-29T05:57:48;26.67;;;16.60;;
38972;SDS011;25333;50.762;4.470;2023-01-29T06:00:14;24.63;;;16.00;;
38972;SDS011;25333;50.762;4.470;2023-01-29T06:02:40;22.27;;;15.93;;
38972;SDS011;25333;50.762;4.470;2023-01-29T06:05:06;25.77;;;17.27;;
38972;SDS011;25333;50.762;4.470;2023-01-29T06:07:32;26.80;;;17.70;;
38972;SDS011;25333;50.762;4.470;2023-01-29T06:09:57;28.50;;;17.55;;
38972;SDS011;25333;50.762;4.470;2023-01-29T06:12:23;26.67;;;17.08;;
38972;SDS011;25333;50.762;4.470;2023-01-29T06:14:50;27.67;;;17.35;;
38972;SDS011;25333;50.762;4.470;2023-01-29T06:17:15;26.00;;;18.03;;
38972;SDS011;25333;50.762;4.470;2023-01-29T06:19:41;27.73;;;18.20;;
38972;SDS011;25333;50.762;4.470;2023-01-29T06:22:07;24.17;;;16.60;;
38972;SDS011;25333;50.762;4.470;2023-01-29T06:24:32;26.63;;;17.33;;
38972;SDS011;25333;50.762;4.470;2023-01-29T06:26:58;26.30;;;17.00;;
38972;SDS011;25333;50.762;4.470;2023-01-29T06:29:23;26.45;;;17.08;;
38972;SDS011;25333;50.762;4.470;2023-01-29T06:31:49;26.27;;;17.63;;
38972;SDS011;25333;50.762;4.470;2023-01-29T06:34:15;22.58;;;16.70;;
38972;SDS011;25333;50.762;4.470;2023-01-29T06:36:40;29.70;;;20.27;;
38972;SDS011;25333;50.762;4.470;2023-01-29T06:39:06;28.02;;;19.33;;
38972;SDS011;25333;50.762;4.470;2023-01-29T06:41:32;25.90;;;18.48;;
38972;SDS011;25333;50.762;4.470;2023-01-29T06:43:58;28.08;;;19.10;;
38972;SDS011;25333;50.762;4.470;2023-01-29T06:46:24;28.97;;;20.33;;
38972;SDS011;25333;50.762;4.470;2023-01-29T06:48:49;33.28;;;21.13;;
38972;SDS011;25333;50.762;4.470;2023-01-29T06:51:15;32.72;;;21.10;;
38972;SDS011;25333;50.762;4.470;2023-01-29T06:53:41;33.00;;;20.95;;
38972;SDS011;25333;50.762;4.470;2023-01-29T06:56:06;28.05;;;19.15;;
38972;SDS011;25333;50.762;4.470;2023-01-29T06:58:32;28.45;;;19.10;;
38972;SDS011;25333;50.762;4.470;2023-01-29T07:01:06;31.77;;;21.10;;
38972;SDS011;25333;50.762;4.470;2023-01-29T07:03:34;31.65;;;20.52;;
38972;SDS011;25333;50.762;4.470;2023-01-29T07:06:00;31.08;;;22.63;;
38972;SDS011;25333;50.762;4.470;2023-01-29T07:08:26;29.73;;;19.17;;
38972;SDS011;25333;50.762;4.470;2023-01-29T07:10:52;27.70;;;19.60;;
38972;SDS011;25333;50.762;4.470;2023-01-29T07:13:23;28.05;;;20.02;;
38972;SDS011;25333;50.762;4.470;2023-01-29T07:15:49;33.17;;;21.55;;
38972;SDS011;25333;50.762;4.470;2023-01-29T07:18:15;31.90;;;20.83;;
38972;SDS011;25333;50.762;4.470;2023-01-29T07:20:41;30.03;;;20.80;;
38972;SDS011;25333;50.762;4.470;2023-01-29T07:23:10;36.58;;;23.40;;
38972;SDS011;25333;50.762;4.470;2023-01-29T07:25:37;40.05;;;24.80;;
38972;SDS011;25333;50.762;4.470;2023-01-29T07:28:03;39.83;;;24.60;;
38972;SDS011;25333;50.762;4.470;2023-01-29T07:30:29;35.10;;;23.88;;
38972;SDS011;25333;50.762;4.470;2023-01-29T07:32:59;30.57;;;20.17;;
38972;SDS011;25333;50.762;4.470;2023-01-29T07:35:29;33.78;;;21.92;;
38972;SDS011;25333;50.762;4.470;2023-01-29T07:37:55;42.60;;;30.25;;
38972;SDS011;25333;50.762;4.470;2023-01-29T07:40:21;41.10;;;30.47;;
38972;SDS011;25333;50.762;4.470;2023-01-29T07:42:47;46.27;;;31.70;;
38972;SDS011;25333;50.762;4.470;2023-01-29T07:45:12;42.63;;;30.58;;
38972;SDS011;25333;50.762;4.470;2023-01-29T07:47:38;46.40;;;31.42;;
38972;SDS011;25333;50.762;4.470;2023-01-29T07:50:04;45.10;;;30.05;;
38972;SDS011;25333;50.762;4.470;2023-01-29T07:52:30;39.80;;;28.55;;
38972;SDS011;25333;50.762;4.470;2023-01-29T07:54:57;39.40;;;27.97;;
38972;SDS011;25333;50.762;4.470;2023-01-29T07:57:23;39.07;;;26.13;;
38972;SDS011;25333;50.762;4.470;2023-01-29T07:59:48;45.57;;;29.37;;
38972;SDS011;25333;50.762;4.470;2023-01-29T08:02:14;44.00;;;29.03;;
38972;SDS011;25333;50.762;4.470;2023-01-29T08:04:39;47.83;;;31.63;;
38972;SDS011;25333;50.762;4.470;2023-01-29T08:07:05;45.13;;;31.92;;
38972;SDS011;25333;50.762;4.470;2023-01-29T08:09:33;48.47;;;32.65;;
38972;SDS011;25333;50.762;4.470;2023-01-29T08:11:59;49.55;;;33.53;;
38972;SDS011;25333;50.762;4.470;2023-01-29T08:14:25;51.13;;;32.97;;
38972;SDS011;25333;50.762;4.470;2023-01-29T08:16:50;55.77;;;35.00;;
38972;SDS011;25333;50.762;4.470;2023-01-29T08:19:16;48.60;;;32.97;;
38972;SDS011;25333;50.762;4.470;2023-01-29T08:21:42;57.53;;;36.72;;
38972;SDS011;25333;50.762;4.470;2023-01-29T08:24:07;54.72;;;36.28;;
38972;SDS011;25333;50.762;4.470;2023-01-29T08:26:33;56.67;;;37.40;;
38972;SDS011;25333;50.762;4.470;2023-01-29T08:28:59;65.25;;;40.67;;
38972;SDS011;25333;50.762;4.470;2023-01-29T08:31:24;65.43;;;40.22;;
38972;SDS011;25333;50.762;4.470;2023-01-29T08:33:52;63.72;;;38.78;;
38972;SDS011;25333;50.762;4.470;2023-01-29T08:36:17;58.53;;;39.15;;
38972;SDS011;25333;50.762;4.470;2023-01-29T08:38:43;68.13;;;40.28;;
38972;SDS011;25333;50.762;4.470;2023-01-29T08:41:09;64.00;;;40.50;;
38972;SDS011;25333;50.762;4.470;2023-01-29T08:43:34;61.00;;;38.00;;
38972;SDS011;25333;50.762;4.470;2023-01-29T08:46:02;63.00;;;40.67;;
38972;SDS011;25333;50.762;4.470;2023-01-29T08:48:28;65.60;;;41.28;;
38972;SDS011;25333;50.762;4.470;2023-01-29T08:51:00;63.37;;;38.40;;
38972;SDS011;25333;50.762;4.470;2023-01-29T08:53:26;61.63;;;39.75;;
38972;SDS011;25333;50.762;4.470;2023-01-29T08:55:52;65.60;;;40.50;;
38972;SDS011;25333;50.762;4.470;2023-01-29T08:58:18;66.50;;;39.83;;
38972;SDS011;25333;50.762;4.470;2023-01-29T09:00:44;64.22;;;40.70;;
38972;SDS011;25333;50.762;4.470;2023-01-29T09:03:10;62.88;;;41.25;;
38972;SDS011;25333;50.762;4.470;2023-01-29T09:05:36;69.97;;;41.40;;
38972;SDS011;25333;50.762;4.470;2023-01-29T09:08:03;63.53;;;40.50;;
38972;SDS011;25333;50.762;4.470;2023-01-29T09:10:30;67.65;;;41.10;;
38972;SDS011;25333;50.762;4.470;2023-01-29T09:12:55;64.43;;;40.20;;
38972;SDS011;25333;50.762;4.470;2023-01-29T09:15:21;65.43;;;41.53;;
38972;SDS011;25333;50.762;4.470;2023-01-29T09:17:47;56.85;;;38.22;;
38972;SDS011;25333;50.762;4.470;2023-01-29T09:20:13;64.77;;;37.63;;
38972;SDS011;25333;50.762;4.470;2023-01-29T09:22:39;61.78;;;38.40;;
38972;SDS011;25333;50.762;4.470;2023-01-29T09:25:05;66.75;;;38.05;;
38972;SDS011;25333;50.762;4.470;2023-01-29T09:27:31;61.95;;;38.88;;
38972;SDS011;25333;50.762;4.470;2023-01-29T09:29:57;62.77;;;37.57;;
38972;SDS011;25333;50.762;4.470;2023-01-29T09:32:22;58.45;;;38.08;;
38972;SDS011;25333;50.762;4.470;2023-01-29T09:34:48;56.58;;;35.70;;
38972;SDS011;25333;50.762;4.470;2023-01-29T09:37:14;61.53;;;37.83;;
38972;SDS011;25333;50.762;4.470;2023-01-29T09:39:41;56.63;;;35.92;;
38972;SDS011;25333;50.762;4.470;2023-01-29T09:42:27;62.95;;;36.33;;
38972;SDS011;25333;50.762;4.470;2023-01-29T09:47:51;51.60;;;33.42;;
38972;SDS011;25333;50.762;4.470;2023-01-29T09:53:14;53.45;;;33.47;;
38972;SDS011;25333;50.762;4.470;2023-01-29T09:55:42;56.43;;;34.93;;
38972;SDS011;25333;50.762;4.470;2023-01-29T09:58:26;55.97;;;33.67;;
38972;SDS011;25333;50.762;4.470;2023-01-29T10:01:16;56.78;;;35.78;;
38972;SDS011;25333;50.762;4.470;2023-01-29T10:15:31;60.53;;;38.15;;
38972;SDS011;25333;50.762;4.470;2023-01-29T10:21:15;52.85;;;35.20;;
38972;SDS011;25333;50.762;4.470;2023-01-29T10:26:39;54.00;;;35.58;;
38972;SDS011;25333;50.762;4.470;2023-01-29T10:29:05;57.03;;;36.00;;
38972;SDS011;25333;50.762;4.470;2023-01-29T10:31:33;52.80;;;33.45;;
38972;SDS011;25333;50.762;4.470;2023-01-29T10:34:09;51.55;;;32.83;;
38972;SDS011;25333;50.762;4.470;2023-01-29T10:36:47;52.10;;;32.33;;
38972;SDS011;25333;50.762;4.470;2023-01-29T10:39:20;52.15;;;32.83;;
38972;SDS011;25333;50.762;4.470;2023-01-29T10:47:17;44.38;;;28.00;;
38972;SDS011;25333;50.762;4.470;2023-01-29T10:52:58;41.42;;;26.45;;
38972;SDS011;25333;50.762;4.470;2023-01-29T10:58:35;36.20;;;24.75;;
38972;SDS011;25333;50.762;4.470;2023-01-29T11:01:01;43.67;;;28.35;;
38972;SDS011;25333;50.762;4.470;2023-01-29T11:03:29;36.78;;;24.45;;
38972;SDS011;25333;50.762;4.470;2023-01-29T11:11:25;41.95;;;25.02;;
38972;SDS011;25333;50.762;4.470;2023-01-29T11:13:59;35.67;;;23.60;;
38972;SDS011;25333;50.762;4.470;2023-01-29T11:16:31;40.05;;;24.83;;
38972;SDS011;25333;50.762;4.470;2023-01-29T11:19:08;34.33;;;23.20;;
38972;SDS011;25333;50.762;4.470;2023-01-29T11:21:49;36.00;;;23.75;;
38972;SDS011;25333;50.762;4.470;2023-01-29T11:24:23;37.97;;;24.35;;
38972;SDS011;25333;50.762;4.470;2023-01-29T11:26:49;37.90;;;24.80;;
38972;SDS011;25333;50.762;4.470;2023-01-29T11:29:28;34.60;;;22.90;;
38972;SDS011;25333;50.762;4.470;2023-01-29T11:31:55;38.30;;;25.25;;
38972;SDS011;25333;50.762;4.470;2023-01-29T11:34:23;38.60;;;23.80;;
38972;SDS011;25333;50.762;4.470;2023-01-29T11:36:55;37.97;;;24.17;;
38972;SDS011;25333;50.762;4.470;2023-01-29T11:39:23;38.03;;;22.98;;
38972;SDS011;25333;50.762;4.470;2023-01-29T11:44:27;33.53;;;20.60;;
38972;SDS011;25333;50.762;4.470;2023-01-29T11:46:55;33.33;;;22.50;;
38972;SDS011;25333;50.762;4.470;2023-01-29T11:49:32;32.72;;;22.77;;
38972;SDS011;25333;50.762;4.470;2023-01-29T11:52:00;35.40;;;22.88;;
38972;SDS011;25333;50.762;4.470;2023-01-29T11:54:30;33.58;;;21.65;;
38972;SDS011;25333;50.762;4.470;2023-01-29T11:57:01;32.50;;;19.00;;
38972;SDS011;25333;50.762;4.470;2023-01-29T12:02:13;26.92;;;17.70;;
38972;SDS011;25333;50.762;4.470;2023-01-29T12:04:47;27.63;;;16.80;;
38972;SDS011;25333;50.762;4.470;2023-01-29T12:07:14;29.90;;;17.92;;
38972;SDS011;25333;50.762;4.470;2023-01-29T12:09:47;25.88;;;16.85;;
38972;SDS011;25333;50.762;4.470;2023-01-29T12:12:38;23.58;;;17.63;;
38972;SDS011;25333;50.762;4.470;2023-01-29T12:15:17;28.70;;;18.52;;
38972;SDS011;25333;50.762;4.470;2023-01-29T12:18:00;25.58;;;16.33;;
38972;SDS011;25333;50.762;4.470;2023-01-29T12:20:37;25.40;;;15.45;;
38972;SDS011;25333;50.762;4.470;2023-01-29T12:23:26;24.30;;;16.13;;
38972;SDS011;25333;50.762;4.470;2023-01-29T12:26:12;25.67;;;16.55;;
38972;SDS011;25333;50.762;4.470;2023-01-29T12:28:58;26.02;;;15.65;;
38972;SDS011;25333;50.762;4.470;2023-01-29T12:31:41;22.17;;;13.95;;
38972;SDS011;25333;50.762;4.470;2023-01-29T12:34:15;23.45;;;15.77;;
38972;SDS011;25333;50.762;4.470;2023-01-29T12:37:01;20.98;;;14.52;;
38972;SDS011;25333;50.762;4.470;2023-01-29T12:39:49;20.65;;;13.40;;
38972;SDS011;25333;50.762;4.470;2023-01-29T12:42:19;20.60;;;13.63;;
38972;SDS011;25333;50.762;4.470;2023-01-29T12:47:20;20.57;;;13.27;;
38972;SDS011;25333;50.762;4.470;2023-01-29T12:49:52;19.02;;;13.35;;
38972;SDS011;25333;50.762;4.470;2023-01-29T12:52:22;20.80;;;13.32;;
38972;SDS011;25333;50.762;4.470;2023-01-29T12:55:20;19.55;;;12.77;;
38972;SDS011;25333;50.762;4.470;2023-01-29T12:57:57;19.60;;;13.23;;
38972;SDS011;25333;50.762;4.470;2023-01-29T13:00:31;19.38;;;14.02;;
38972;SDS011;25333;50.762;4.470;2023-01-29T13:03:21;16.40;;;12.18;;
38972;SDS011;25333;50.762;4.470;2023-01-29T13:05:59;18.75;;;13.27;;
38972;SDS011;25333;50.762;4.470;2023-01-29T13:08:35;21.08;;;13.98;;
38972;SDS011;25333;50.762;4.470;2023-01-29T13:11:39;17.15;;;11.77;;
38972;SDS011;25333;50.762;4.470;2023-01-29T13:14:13;18.20;;;12.13;;
38972;SDS011;25333;50.762;4.470;2023-01-29T13:16:53;17.15;;;12.52;;
38972;SDS011;25333;50.762;4.470;2023-01-29T13:19:34;17.83;;;11.82;;
38972;SDS011;25333;50.762;4.470;2023-01-29T13:22:03;21.48;;;12.80;;
38972;SDS011;25333;50.762;4.470;2023-01-29T13:24:39;19.75;;;12.23;;
38972;SDS011;25333;50.762;4.470;2023-01-29T13:27:05;19.85;;;11.43;;
38972;SDS011;25333;50.762;4.470;2023-01-29T13:29:31;19.30;;;13.00;;
38972;SDS011;25333;50.762;4.470;2023-01-29T13:31:58;15.57;;;11.88;;
38972;SDS011;25333;50.762;4.470;2023-01-29T13:34:36;19.20;;;12.95;;
38972;SDS011;25333;50.762;4.470;2023-01-29T13:37:10;19.23;;;11.40;;
38972;SDS011;25333;50.762;4.470;2023-01-29T13:39:45;15.10;;;11.27;;
38972;SDS011;25333;50.762;4.470;2023-01-29T13:42:20;19.65;;;12.27;;
38972;SDS011;25333;50.762;4.470;2023-01-29T13:44:48;18.25;;;11.45;;
38972;SDS011;25333;50.762;4.470;2023-01-29T13:47:24;17.88;;;12.98;;
38972;SDS011;25333;50.762;4.470;2023-01-29T13:49:59;17.13;;;12.93;;
38972;SDS011;25333;50.762;4.470;2023-01-29T13:52:39;17.10;;;12.30;;
38972;SDS011;25333;50.762;4.470;2023-01-29T13:55:19;18.02;;;12.48;;
38972;SDS011;25333;50.762;4.470;2023-01-29T13:57:51;15.00;;;11.98;;
38972;SDS011;25333;50.762;4.470;2023-01-29T14:03:32;17.95;;;12.77;;
38972;SDS011;25333;50.762;4.470;2023-01-29T14:10:41;23.40;;;14.73;;
38972;SDS011;25333;50.762;4.470;2023-01-29T14:15:43;18.03;;;13.33;;
38972;SDS011;25333;50.762;4.470;2023-01-29T14:18:22;21.37;;;14.77;;
38972;SDS011;25333;50.762;4.470;2023-01-29T14:21:18;22.55;;;14.93;;
38972;SDS011;25333;50.762;4.470;2023-01-29T14:23:49;22.45;;;15.32;;
38972;SDS011;25333;50.762;4.470;2023-01-29T14:34:27;23.57;;;15.80;;
38972;SDS011;25333;50.762;4.470;2023-01-29T14:39:44;18.75;;;14.00;;
38972;SDS011;25333;50.762;4.470;2023-01-29T14:42:36;17.27;;;13.65;;
38972;SDS011;25333;50.762;4.470;2023-01-29T14:53:00;16.98;;;12.45;;
38972;SDS011;25333;50.762;4.470;2023-01-29T14:55:54;18.25;;;12.75;;
38972;SDS011;25333;50.762;4.470;2023-01-29T14:58:27;15.18;;;11.68;;
38972;SDS011;25333;50.762;4.470;2023-01-29T15:01:01;17.02;;;12.20;;
38972;SDS011;25333;50.762;4.470;2023-01-29T15:03:42;17.02;;;12.23;;
38972;SDS011;25333;50.762;4.470;2023-01-29T15:06:28;20.17;;;13.80;;
38972;SDS011;25333;50.762;4.470;2023-01-29T15:09:05;20.35;;;13.02;;
38972;SDS011;25333;50.762;4.470;2023-01-29T15:12:15;20.00;;;14.13;;
38972;SDS011;25333;50.762;4.470;2023-01-29T15:20:01;23.77;;;15.38;;
38972;SDS011;25333;50.762;4.470;2023-01-29T15:22:44;24.35;;;16.13;;
38972;SDS011;25333;50.762;4.470;2023-01-29T15:25:13;28.70;;;16.75;;
38972;SDS011;25333;50.762;4.470;2023-01-29T15:27:42;22.63;;;15.60;;
38972;SDS011;25333;50.762;4.470;2023-01-29T15:30:16;22.60;;;15.48;;
38972;SDS011;25333;50.762;4.470;2023-01-29T15:32:44;25.30;;;17.73;;
38972;SDS011;25333;50.762;4.470;2023-01-29T15:35:18;25.92;;;16.85;;
38972;SDS011;25333;50.762;4.470;2023-01-29T15:37:59;28.85;;;17.67;;
38972;SDS011;25333;50.762;4.470;2023-01-29T15:40:27;28.35;;;18.63;;
38972;SDS011;25333;50.762;4.470;2023-01-29T15:42:53;27.87;;;17.77;;
38972;SDS011;25333;50.762;4.470;2023-01-29T15:45:21;28.20;;;20.48;;
38972;SDS011;25333;50.762;4.470;2023-01-29T15:47:58;29.40;;;19.35;;
38972;SDS011;25333;50.762;4.470;2023-01-29T15:50:31;31.98;;;21.33;;
38972;SDS011;25333;50.762;4.470;2023-01-29T15:53:02;29.15;;;19.23;;
38972;SDS011;25333;50.762;4.470;2023-01-29T15:55:30;29.35;;;19.83;;
38972;SDS011;25333;50.762;4.470;2023-01-29T15:57:57;31.67;;;20.45;;
38972;SDS011;25333;50.762;4.470;2023-01-29T16:00:25;27.33;;;19.45;;
38972;SDS011;25333;50.762;4.470;2023-01-29T16:02:53;33.25;;;22.48;;
38972;SDS011;25333;50.762;4.470;2023-01-29T16:05:20;32.95;;;21.67;;
38972;SDS011;25333;50.762;4.470;2023-01-29T16:07:51;34.47;;;22.13;;
38972;SDS011;25333;50.762;4.470;2023-01-29T16:10:20;34.90;;;22.48;;
38972;SDS011;25333;50.762;4.470;2023-01-29T16:12:51;32.33;;;22.08;;
38972;SDS011;25333;50.762;4.470;2023-01-29T16:15:28;37.25;;;21.75;;
38972;SDS011;25333;50.762;4.470;2023-01-29T16:17:57;32.80;;;22.75;;
38972;SDS011;25333;50.762;4.470;2023-01-29T16:20:42;32.58;;;22.33;;
38972;SDS011;25333;50.762;4.470;2023-01-29T16:23:20;32.17;;;22.83;;
38972;SDS011;25333;50.762;4.470;2023-01-29T16:25:51;37.20;;;22.50;;
38972;SDS011;25333;50.762;4.470;2023-01-29T16:28:19;33.03;;;23.40;;
38972;SDS011;25333;50.762;4.470;2023-01-29T16:30:45;37.40;;;24.52;;
38972;SDS011;25333;50.762;4.470;2023-01-29T16:33:15;36.22;;;21.23;;
38972;SDS011;25333;50.762;4.470;2023-01-29T16:35:41;38.42;;;24.17;;
38972;SDS011;25333;50.762;4.470;2023-01-29T16:38:27;37.20;;;23.25;;
38972;SDS011;25333;50.762;4.470;2023-01-29T16:46:55;38.03;;;24.33;;
38972;SDS011;25333;50.762;4.470;2023-01-29T16:51:55;38.63;;;24.42;;
38972;SDS011;25333;50.762;4.470;2023-01-29T16:54:40;38.25;;;25.60;;
38972;SDS011;25333;50.762;4.470;2023-01-29T16:57:10;31.60;;;21.67;;
38972;SDS011;25333;50.762;4.470;2023-01-29T16:59:39;35.97;;;24.33;;
38972;SDS011;25333;50.762;4.470;2023-01-29T17:02:26;38.13;;;24.07;;
38972;SDS011;25333;50.762;4.470;2023-01-29T17:04:55;41.03;;;24.52;;
38972;SDS011;25333;50.762;4.470;2023-01-29T17:07:24;35.97;;;24.27;;
38972;SDS011;25333;50.762;4.470;2023-01-29T17:09:54;33.55;;;24.65;;
38972;SDS011;25333;50.762;4.470;2023-01-29T17:12:24;37.88;;;24.48;;
38972;SDS011;25333;50.762;4.470;2023-01-29T17:14:55;39.95;;;25.23;;
38972;SDS011;25333;50.762;4.470;2023-01-29T17:17:27;36.95;;;24.75;;